createdAt,value
2019-03-20T00:00:45.582Z,102608.59
2019-03-20T00:03:15.332Z,102612.48
2019-03-20T00:05:44.996Z,102612.48
2019-03-20T00:08:14.980Z,102600.84
2019-03-20T00:10:44.641Z,102598.28
2019-03-20T00:13:14.311Z,102603.95
2019-03-20T00:15:44.048Z,102605.24
2019-03-20T00:18:13.829Z,102608.75
2019-03-20T00:20:43.567Z,102604.03
2019-03-20T00:23:13.226Z,102595.86
2019-03-20T00:25:43.076Z,102598.02
2019-03-20T00:28:13.722Z,102601.03
2019-03-20T00:30:44.709Z,102595.42
2019-03-20T00:33:14.384Z,102607.94
2019-03-20T00:35:44.376Z,102597.17
2019-03-20T00:38:14.292Z,102591.97
2019-03-20T00:40:43.973Z,102595.02
2019-03-20T00:43:13.646Z,102598.02
2019-03-20T00:45:43.388Z,102589.84
2019-03-20T00:48:13.053Z,102605.38
2019-03-20T00:50:42.728Z,102611.02
2019-03-20T00:53:12.629Z,102608.83
2019-03-20T00:55:42.300Z,102608.83
2019-03-20T00:58:12.239Z,102610.55
2019-03-20T01:00:42.221Z,102615.27
2019-03-20T01:03:12.114Z,102621.31
2019-03-20T01:05:41.792Z,102615.27
2019-03-20T01:08:11.465Z,102617.41
2019-03-20T01:10:41.144Z,102616.55
2019-03-20T01:13:10.800Z,102620.45
2019-03-20T01:15:40.537Z,102619.61
2019-03-20T01:18:10.225Z,102622.20
2019-03-20T01:20:39.895Z,102622.28
2019-03-20T01:23:09.567Z,102625.33
2019-03-20T01:25:40.207Z,102621.06
2019-03-20T01:28:10.034Z,102612.05
2019-03-20T01:30:39.842Z,102613.37
2019-03-20T01:33:10.512Z,102616.86
2019-03-20T01:35:40.343Z,102611.73
2019-03-20T01:38:10.375Z,102613.50
2019-03-20T01:40:40.961Z,102610.09
2019-03-20T01:43:11.839Z,102604.98
2019-03-20T01:45:41.514Z,102601.98
2019-03-20T01:48:11.203Z,102607.62
2019-03-20T01:50:40.939Z,102605.95
2019-03-20T01:53:11.192Z,102612.43
2019-03-20T01:55:40.854Z,102611.66
2019-03-20T01:58:10.591Z,102610.83
2019-03-20T02:00:41.269Z,102611.33
2019-03-20T02:03:10.945Z,102612.63
2019-03-20T02:05:40.692Z,102611.38
2019-03-20T02:08:10.377Z,102606.65
2019-03-20T02:10:40.138Z,102604.09
2019-03-20T02:13:09.817Z,102601.97
2019-03-20T02:15:39.817Z,102602.42
2019-03-20T02:18:09.525Z,102600.69
2019-03-20T02:20:39.198Z,102602.44
2019-03-20T02:23:08.880Z,102601.20
2019-03-20T02:25:38.580Z,102598.19
2019-03-20T02:28:08.487Z,102602.94
2019-03-20T02:30:38.164Z,102597.36
2019-03-20T02:33:07.968Z,102592.62
2019-03-20T02:35:50.724Z,102596.92
2019-03-20T02:38:09.004Z,102593.91
2019-03-20T02:40:38.672Z,102597.36
2019-03-20T02:43:08.369Z,102594.75
2019-03-20T02:45:38.044Z,102593.90
2019-03-20T02:48:07.714Z,102593.90
2019-03-20T02:50:37.393Z,102597.77
2019-03-20T02:53:07.136Z,102591.33
2019-03-20T02:55:36.991Z,102586.16
2019-03-20T02:58:10.600Z,102576.27
2019-03-20T03:00:40.523Z,102587.89
2019-03-20T03:03:10.285Z,102592.21
2019-03-20T03:05:40.125Z,102594.38
2019-03-20T03:08:10.130Z,102584.06
2019-03-20T03:10:39.873Z,102590.95
2019-03-20T03:13:09.545Z,102596.97
2019-03-20T03:15:39.468Z,102596.14
2019-03-20T03:18:09.203Z,102594.84
2019-03-20T03:20:39.194Z,102597.88
2019-03-20T03:23:08.864Z,102596.17
2019-03-20T03:25:38.569Z,102597.46
2019-03-20T03:28:08.229Z,102597.46
2019-03-20T03:30:37.989Z,102595.30
2019-03-20T03:33:07.702Z,102588.44
2019-03-20T03:35:37.338Z,102591.02
2019-03-20T03:38:07.010Z,102594.47
2019-03-20T03:40:36.688Z,102590.58
2019-03-20T03:43:06.381Z,102591.88
2019-03-20T03:45:36.072Z,102587.55
2019-03-20T03:48:05.835Z,102595.30
2019-03-20T03:50:35.505Z,102596.19
2019-03-20T03:53:05.252Z,102586.28
2019-03-20T03:55:36.161Z,102580.69
2019-03-20T03:58:06.130Z,102585.86
2019-03-20T04:00:35.946Z,102588.86
2019-03-20T04:03:05.606Z,102584.16
2019-03-20T04:05:35.379Z,102581.18
2019-03-20T04:08:05.135Z,102581.19
2019-03-20T04:10:34.792Z,102586.80
2019-03-20T04:13:05.337Z,102582.45
2019-03-20T04:15:36.490Z,102583.31
2019-03-20T04:18:06.424Z,102582.45
2019-03-20T04:20:36.158Z,102589.73
2019-03-20T04:23:05.830Z,102580.69
2019-03-20T04:25:35.728Z,102582.83
2019-03-20T04:28:05.413Z,102584.11
2019-03-20T04:30:35.078Z,102584.52
2019-03-20T04:33:05.112Z,102586.70
2019-03-20T04:35:35.090Z,102585.01
2019-03-20T04:38:04.829Z,102591.03
2019-03-20T04:40:34.488Z,102597.06
2019-03-20T04:43:05.540Z,102597.50
2019-03-20T04:45:35.199Z,102593.63
2019-03-20T04:48:05.357Z,102590.13
2019-03-20T04:50:35.019Z,102588.41
2019-03-20T04:53:05.244Z,102593.63
2019-03-20T04:55:35.157Z,102595.34
2019-03-20T04:58:05.288Z,102597.91
2019-03-20T05:00:39.999Z,102600.04
2019-03-20T05:03:09.685Z,102594.84
2019-03-20T05:05:39.360Z,102593.96
2019-03-20T05:08:09.029Z,102595.65
2019-03-20T05:10:38.735Z,102608.56
2019-03-20T05:13:08.865Z,102618.45
2019-03-20T05:15:38.546Z,102616.72
2019-03-20T05:18:08.217Z,102618.85
2019-03-20T05:20:37.898Z,102609.36
2019-03-20T05:23:08.562Z,102620.09
2019-03-20T05:25:38.264Z,102621.32
2019-03-20T05:28:07.947Z,102629.91
2019-03-20T05:30:37.620Z,102627.74
2019-03-20T05:33:07.285Z,102625.09
2019-03-20T05:35:36.957Z,102619.92
2019-03-20T05:38:06.868Z,102628.52
2019-03-20T05:40:36.536Z,102635.39
2019-03-20T05:43:06.204Z,102635.79
2019-03-20T05:45:36.092Z,102632.78
2019-03-20T05:48:05.810Z,102641.33
2019-03-20T05:50:35.728Z,102633.58
2019-03-20T05:53:05.656Z,102630.95
2019-03-20T05:55:35.424Z,102640.84
2019-03-20T05:58:05.092Z,102634.80
2019-03-20T06:00:35.745Z,102629.14
2019-03-20T06:03:05.523Z,102631.33
2019-03-20T06:05:35.416Z,102631.73
2019-03-20T06:08:05.402Z,102631.72
2019-03-20T06:10:35.449Z,102634.31
2019-03-20T06:13:05.203Z,102629.05
2019-03-20T06:15:34.859Z,102633.29
2019-03-20T06:18:05.048Z,102632.39
2019-03-20T06:20:34.718Z,102647.83
2019-03-20T06:23:05.161Z,102649.48
2019-03-20T06:25:34.866Z,102649.84
2019-03-20T06:28:04.832Z,102642.07
2019-03-20T06:30:34.511Z,102645.94
2019-03-20T06:33:05.321Z,102665.67
2019-03-20T06:35:35.964Z,102667.28
2019-03-20T06:38:06.775Z,102670.23
2019-03-20T06:40:36.451Z,102670.16
2019-03-20T06:43:06.144Z,102669.19
2019-03-20T06:45:35.826Z,102672.14
2019-03-20T06:48:05.612Z,102684.58
2019-03-20T06:50:35.380Z,102675.02
2019-03-20T06:53:05.132Z,102679.66
2019-03-20T06:55:34.818Z,102677.38
2019-03-20T06:58:05.029Z,102683.38
2019-03-20T07:00:55.689Z,102676.38
2019-03-20T07:03:35.193Z,102677.61
2019-03-20T07:06:27.483Z,102683.56
2019-03-20T07:09:01.498Z,102681.75
2019-03-20T07:11:34.755Z,102682.48
2019-03-20T07:14:04.898Z,102682.48
2019-03-20T07:16:34.567Z,102694.86
2019-03-20T07:19:05.265Z,102686.59
2019-03-20T07:21:34.932Z,102693.84
2019-03-20T07:24:05.153Z,102690.77
2019-03-20T07:26:34.820Z,102695.30
2019-03-20T07:29:05.239Z,102695.30
2019-03-20T07:31:35.094Z,102684.34
2019-03-20T07:34:05.267Z,102688.13
2019-03-20T07:36:35.127Z,102691.05
2019-03-20T07:39:08.122Z,102692.71
2019-03-20T07:41:37.933Z,102706.02
2019-03-20T07:44:07.677Z,102713.69
2019-03-20T07:46:37.343Z,102707.99
2019-03-20T07:49:07.050Z,102705.28
2019-03-20T07:51:36.796Z,102712.45
2019-03-20T07:54:06.529Z,102717.09
2019-03-20T07:56:36.214Z,102710.00
2019-03-20T07:59:05.961Z,102711.19
2019-03-20T08:04:14.800Z,102715.67
2019-03-20T08:06:44.475Z,102714.67
2019-03-20T08:09:14.146Z,102716.28
2019-03-20T08:11:43.820Z,102717.93
2019-03-20T08:14:13.483Z,102719.92
2019-03-20T08:16:43.144Z,102725.34
2019-03-20T08:19:12.817Z,102726.81
2019-03-20T08:21:42.498Z,102729.52
2019-03-20T08:24:12.170Z,102729.64
2019-03-20T08:26:41.845Z,102726.84
2019-03-20T08:29:11.598Z,102730.03
2019-03-20T08:31:41.505Z,102733.62
2019-03-20T08:34:11.182Z,102733.05
2019-03-20T08:36:40.880Z,102738.11
2019-03-20T08:39:10.541Z,102732.70
2019-03-20T08:41:40.218Z,102737.89
2019-03-20T08:44:09.874Z,102739.68
2019-03-20T08:46:39.532Z,102737.95
2019-03-20T08:49:09.200Z,102737.91
2019-03-20T08:51:38.921Z,102746.53
2019-03-20T08:54:08.592Z,102743.05
2019-03-20T08:56:38.272Z,102749.89
2019-03-20T08:59:07.956Z,102759.34
2019-03-20T09:01:37.618Z,102759.78
2019-03-20T09:04:07.292Z,102758.43
2019-03-20T09:06:36.969Z,102759.23
2019-03-20T09:09:08.508Z,102763.47
2019-03-20T09:11:38.183Z,102759.84
2019-03-20T09:14:07.847Z,102762.72
2019-03-20T09:16:37.530Z,102766.08
2019-03-20T09:19:07.422Z,102765.63
2019-03-20T09:21:37.099Z,102769.06
2019-03-20T09:24:06.777Z,102779.34
2019-03-20T09:26:36.597Z,102773.52
2019-03-20T09:29:06.333Z,102775.48
2019-03-20T09:31:36.093Z,102777.16
2019-03-20T09:34:05.825Z,102776.23
2019-03-20T09:36:43.189Z,102783.89
2019-03-20T09:39:08.777Z,102777.80
2019-03-20T09:41:38.474Z,102781.66
2019-03-20T09:44:08.146Z,102781.88
2019-03-20T09:46:37.837Z,102784.05
2019-03-20T09:49:07.511Z,102788.11
2019-03-20T09:51:37.180Z,102786.56
2019-03-20T09:54:06.901Z,102790.42
2019-03-20T09:56:36.667Z,102789.52
2019-03-20T09:59:06.348Z,102793.74
2019-03-20T10:01:36.169Z,102792.73
2019-03-20T10:04:05.933Z,102791.50
2019-03-20T10:06:35.610Z,102787.86
2019-03-20T10:09:08.138Z,102784.26
2019-03-20T10:11:37.830Z,102783.25
2019-03-20T10:14:07.519Z,102791.70
2019-03-20T10:16:37.193Z,102787.13
2019-03-20T10:19:06.873Z,102786.93
2019-03-20T10:21:36.898Z,102785.13
2019-03-20T10:24:06.666Z,102778.11
2019-03-20T10:26:36.362Z,102773.58
2019-03-20T10:29:06.060Z,102775.42
2019-03-20T10:31:35.733Z,102779.22
2019-03-20T10:34:05.493Z,102780.14
2019-03-20T10:36:35.169Z,102781.98
2019-03-20T10:39:07.814Z,102783.59
2019-03-20T10:41:37.518Z,102779.83
2019-03-20T10:44:07.198Z,102777.76
2019-03-20T10:46:36.868Z,102777.76
2019-03-20T10:49:06.548Z,102771.23
2019-03-20T10:51:37.448Z,102773.34
2019-03-20T10:54:07.126Z,102774.14
2019-03-20T10:56:36.806Z,102780.67
2019-03-20T10:59:06.573Z,102783.70
2019-03-20T11:01:42.465Z,102787.42
2019-03-20T11:04:07.949Z,102786.11
2019-03-20T11:06:37.626Z,102793.95
2019-03-20T11:09:17.640Z,102791.99
2019-03-20T11:11:39.819Z,102799.72
2019-03-20T11:14:10.226Z,102804.34
2019-03-20T11:16:39.910Z,102812.42
2019-03-20T11:19:09.591Z,102818.43
2019-03-20T11:21:39.266Z,102809.37
2019-03-20T11:24:09.197Z,102821.19
2019-03-20T11:26:38.898Z,102822.08
2019-03-20T11:29:08.587Z,102821.34
2019-03-20T11:31:38.265Z,102819.34
2019-03-20T11:34:07.948Z,102828.94
2019-03-20T11:36:37.626Z,102828.81
2019-03-20T11:39:09.267Z,102825.76
2019-03-20T11:41:38.933Z,102833.45
2019-03-20T11:44:08.598Z,102834.70
2019-03-20T11:46:38.281Z,102834.83
2019-03-20T11:49:07.997Z,102838.33
2019-03-20T11:51:37.866Z,102835.35
2019-03-20T11:54:07.718Z,102837.97
2019-03-20T11:56:37.398Z,102835.97
2019-03-20T11:59:07.081Z,102835.67
2019-03-20T12:01:36.769Z,102836.05
2019-03-20T12:04:06.530Z,102834.75
2019-03-20T12:06:36.471Z,102837.78
2019-03-20T12:09:09.130Z,102839.89
2019-03-20T12:11:45.946Z,102841.86
2019-03-20T12:14:10.177Z,102847.59
2019-03-20T12:16:40.788Z,102854.45
2019-03-20T12:19:10.730Z,102847.47
2019-03-20T12:21:40.690Z,102844.47
2019-03-20T12:24:10.376Z,102844.36
2019-03-20T12:26:40.041Z,102839.07
2019-03-20T12:29:09.916Z,102838.27
2019-03-20T12:31:39.907Z,102847.47
2019-03-20T12:34:10.191Z,102839.45
2019-03-20T12:36:40.126Z,102840.39
2019-03-20T12:39:10.008Z,102837.55
2019-03-20T12:41:39.681Z,102843.20
2019-03-20T12:44:09.361Z,102839.67
2019-03-20T12:46:41.666Z,102841.09
2019-03-20T12:49:10.884Z,102837.36
2019-03-20T12:51:40.576Z,102836.03
2019-03-20T12:54:10.254Z,102836.27
2019-03-20T12:56:40.106Z,102836.52
2019-03-20T12:59:09.794Z,102834.47
2019-03-20T13:01:39.459Z,102837.31
2019-03-20T13:04:09.149Z,102837.92
2019-03-20T13:06:39.018Z,102834.59
2019-03-20T13:09:09.256Z,102836.27
2019-03-20T13:11:38.947Z,102838.38
2019-03-20T13:14:09.620Z,102841.28
2019-03-20T13:16:39.293Z,102844.28
2019-03-20T13:19:09.127Z,102842.44
2019-03-20T13:21:38.794Z,102843.75
2019-03-20T13:24:08.598Z,102843.24
2019-03-20T13:26:38.529Z,102845.80
2019-03-20T13:29:08.206Z,102842.27
2019-03-20T13:31:38.033Z,102839.70
2019-03-20T13:34:07.712Z,102837.09
2019-03-20T13:36:37.408Z,102828.17
2019-03-20T13:39:07.944Z,102835.42
2019-03-20T13:41:37.613Z,102828.67
2019-03-20T13:44:07.287Z,102827.14
2019-03-20T13:46:36.973Z,102826.06
2019-03-20T13:49:06.660Z,102816.02
2019-03-20T13:51:36.329Z,102828.23
2019-03-20T13:54:06.012Z,102826.13
2019-03-20T13:56:35.677Z,102829.19
2019-03-20T13:59:05.490Z,102833.55
2019-03-20T14:01:35.413Z,102831.36
2019-03-20T14:04:05.172Z,102838.12
2019-03-20T14:06:34.853Z,102843.20
2019-03-20T14:09:07.934Z,102837.11
2019-03-20T14:11:37.622Z,102835.34
2019-03-20T14:14:07.439Z,102843.64
2019-03-20T14:16:37.141Z,102836.87
2019-03-20T14:19:06.816Z,102833.77
2019-03-20T14:21:36.487Z,102824.62
2019-03-20T14:24:06.185Z,102824.62
2019-03-20T14:26:35.970Z,102827.30
2019-03-20T14:29:05.719Z,102823.31
2019-03-20T14:31:35.389Z,102822.86
2019-03-20T14:34:05.158Z,102816.89
2019-03-20T14:36:34.830Z,102815.46
2019-03-20T14:39:07.775Z,102818.08
2019-03-20T14:41:37.462Z,102817.56
2019-03-20T14:44:07.145Z,102825.42
2019-03-20T14:46:36.831Z,102822.70
2019-03-20T14:49:06.585Z,102819.39
2019-03-20T14:51:36.262Z,102818.05
2019-03-20T14:54:06.918Z,102819.17
2019-03-20T14:56:36.614Z,102816.91
2019-03-20T14:59:06.300Z,102817.35
2019-03-20T15:01:36.269Z,102817.35
2019-03-20T15:04:05.958Z,102826.00
2019-03-20T15:06:35.630Z,102816.84
2019-03-20T15:09:08.595Z,102823.29
2019-03-20T15:11:38.262Z,102821.85
2019-03-20T15:14:08.000Z,102811.16
2019-03-20T15:16:37.682Z,102812.16
2019-03-20T15:19:07.360Z,102818.56
2019-03-20T15:21:37.050Z,102809.98
2019-03-20T15:24:06.725Z,102810.36
2019-03-20T15:26:36.441Z,102807.75
2019-03-20T15:29:07.333Z,102802.86
2019-03-20T15:31:37.014Z,102789.84
2019-03-20T15:34:07.685Z,102789.84
2019-03-20T15:36:37.358Z,102788.12
2019-03-20T15:39:08.109Z,102792.81
2019-03-20T15:41:37.781Z,102791.02
2019-03-20T15:44:07.458Z,102789.62
2019-03-20T15:46:37.150Z,102793.06
2019-03-20T15:49:06.846Z,102799.52
2019-03-20T15:51:36.522Z,102802.06
2019-03-20T15:54:06.455Z,102807.58
2019-03-20T15:56:36.137Z,102809.75
2019-03-20T15:59:05.814Z,102804.58
2019-03-20T16:01:35.525Z,102806.69
2019-03-20T16:04:06.279Z,102812.88
2019-03-20T16:06:36.045Z,102812.53
2019-03-20T16:09:08.169Z,102816.87
2019-03-20T16:11:37.852Z,102817.32
2019-03-20T16:14:07.593Z,102816.08
2019-03-20T16:16:37.345Z,102817.39
2019-03-20T16:19:07.013Z,102812.25
2019-03-20T16:21:36.699Z,102822.27
2019-03-20T16:24:07.358Z,102815.31
2019-03-20T16:26:37.145Z,102819.20
2019-03-20T16:29:07.094Z,102814.00
2019-03-20T16:31:36.786Z,102812.70
2019-03-20T16:34:15.202Z,102820.52
2019-03-20T16:36:44.894Z,102817.13
2019-03-20T16:39:14.568Z,102819.81
2019-03-20T16:41:44.238Z,102825.46
2019-03-20T16:44:13.934Z,102827.57
2019-03-20T16:46:44.786Z,102828.37
2019-03-20T16:49:14.679Z,102823.45
2019-03-20T16:51:44.432Z,102823.45
2019-03-20T16:54:14.102Z,102834.63
2019-03-20T16:56:43.795Z,102835.93
2019-03-20T16:59:13.471Z,102836.37
2019-03-20T17:01:43.254Z,102841.67
2019-03-20T17:04:12.938Z,102834.72
2019-03-20T17:06:42.625Z,102838.55
2019-03-20T17:09:12.305Z,102837.23
2019-03-20T17:11:42.003Z,102841.55
2019-03-20T17:14:11.771Z,102841.04
2019-03-20T17:16:42.808Z,102844.97
2019-03-20T17:19:12.751Z,102851.16
2019-03-20T17:21:43.394Z,102847.80
2019-03-20T17:24:13.093Z,102847.70
2019-03-20T17:26:42.812Z,102848.28
2019-03-20T17:29:13.689Z,102848.22
2019-03-20T17:31:44.421Z,102855.72
2019-03-20T17:34:14.123Z,102855.78
2019-03-20T17:36:43.814Z,102849.81
2019-03-20T17:39:13.492Z,102854.98
2019-03-20T17:41:43.348Z,102851.05
2019-03-20T17:44:13.027Z,102848.53
2019-03-20T17:46:42.712Z,102838.98
2019-03-20T17:49:12.408Z,102843.80
2019-03-20T17:51:46.678Z,102844.67
2019-03-20T17:54:16.373Z,102842.91
2019-03-20T17:56:46.071Z,102845.59
2019-03-20T17:59:16.355Z,102839.08
2019-03-20T18:01:46.346Z,102848.30
2019-03-20T18:04:16.043Z,102854.27
2019-03-20T18:06:45.732Z,102857.81
2019-03-20T18:09:15.409Z,102856.89
2019-03-20T18:11:47.642Z,102858.61
2019-03-20T18:14:16.686Z,102860.43
2019-03-20T18:16:46.383Z,102862.25
2019-03-20T18:19:16.064Z,102866.55
2019-03-20T18:21:45.738Z,102867.42
2019-03-20T18:24:15.442Z,102879.61
2019-03-20T18:26:45.124Z,102871.85
2019-03-20T18:29:15.079Z,102881.94
2019-03-20T18:31:46.269Z,102884.13
2019-03-20T18:34:16.124Z,102885.05
2019-03-20T18:36:46.092Z,102887.70
2019-03-20T18:39:15.764Z,102882.59
2019-03-20T18:41:45.581Z,102888.27
2019-03-20T18:44:16.428Z,102883.45
2019-03-20T18:46:46.114Z,102882.47
2019-03-20T18:49:16.007Z,102876.50
2019-03-20T18:51:45.688Z,102881.28
2019-03-20T18:54:15.460Z,102877.95
2019-03-20T18:56:45.189Z,102880.98
2019-03-20T18:59:15.196Z,102878.43
2019-03-20T19:01:44.896Z,102884.61
2019-03-20T19:04:14.565Z,102882.89
2019-03-20T19:06:44.436Z,102884.61
2019-03-20T19:09:14.095Z,102883.75
2019-03-20T19:11:43.771Z,102882.56
2019-03-20T19:14:14.534Z,102886.48
2019-03-20T19:16:45.159Z,102889.94
2019-03-20T19:19:14.826Z,102892.22
2019-03-20T19:21:44.518Z,102893.91
2019-03-20T19:24:14.454Z,102888.33
2019-03-20T19:26:44.142Z,102888.33
2019-03-20T19:29:13.836Z,102892.67
2019-03-20T19:31:43.516Z,102897.84
2019-03-20T19:34:14.261Z,102896.59
2019-03-20T19:36:43.931Z,102894.48
2019-03-20T19:39:13.871Z,102894.92
2019-03-20T19:41:43.546Z,102896.67
2019-03-20T19:44:14.586Z,102895.34
2019-03-20T19:46:44.309Z,102897.55
2019-03-20T19:49:13.988Z,102897.98
2019-03-20T19:51:43.678Z,102898.47
2019-03-20T19:54:13.369Z,102898.49
2019-03-20T19:56:43.040Z,102899.41
2019-03-20T19:59:12.722Z,102892.94
2019-03-20T20:01:42.391Z,102896.08
2019-03-20T20:04:12.078Z,102903.54
2019-03-20T20:06:41.791Z,102898.38
2019-03-20T20:09:11.613Z,102906.23
2019-03-20T20:11:41.274Z,102902.31
2019-03-20T20:14:10.966Z,102903.23
2019-03-20T20:16:40.644Z,102911.47
2019-03-20T20:19:10.342Z,102910.16
2019-03-20T20:21:40.019Z,102909.77
2019-03-20T20:24:09.694Z,102915.51
2019-03-20T20:26:39.371Z,102914.70
2019-03-20T20:29:09.051Z,102913.90
2019-03-20T20:31:38.765Z,102914.91
2019-03-20T20:34:08.483Z,102920.19
2019-03-20T20:36:38.178Z,102926.72
2019-03-20T20:39:08.235Z,102936.77
2019-03-20T20:41:38.008Z,102935.09
2019-03-20T20:44:07.675Z,102940.74
2019-03-20T20:46:37.357Z,102942.11
2019-03-20T20:49:07.049Z,102942.11
2019-03-20T20:51:36.975Z,102940.74
2019-03-20T20:54:06.651Z,102941.19
2019-03-20T20:56:37.207Z,102931.59
2019-03-20T20:59:06.888Z,102923.30
2019-03-20T21:01:36.679Z,102924.14
2019-03-20T21:04:06.365Z,102922.83
2019-03-20T21:06:36.200Z,102916.77
2019-03-20T21:09:07.775Z,102917.72
2019-03-20T21:11:37.529Z,102915.09
2019-03-20T21:14:07.199Z,102913.85
2019-03-20T21:16:37.426Z,102922.19
2019-03-20T21:19:35.390Z,102917.91
2019-03-20T21:22:47.382Z,102916.68
2019-03-20T21:25:21.765Z,102915.05
2019-03-20T21:28:56.854Z,102913.82
2019-03-20T21:31:36.814Z,102917.43
2019-03-20T21:34:49.458Z,102917.13
2019-03-20T21:38:03.165Z,102915.51
2019-03-20T21:40:56.646Z,102917.26
2019-03-20T21:44:15.586Z,102920.37
2019-03-20T21:47:05.089Z,102914.75
2019-03-20T21:49:35.569Z,102913.95
2019-03-20T21:52:05.819Z,102919.56
2019-03-20T21:55:25.856Z,102921.67
2019-03-20T21:58:22.219Z,102926.91
2019-03-20T22:01:32.090Z,102918.31
2019-03-20T22:04:02.302Z,102921.36
2019-03-20T22:07:11.178Z,102927.95
2019-03-20T22:10:33.021Z,102929.20
2019-03-20T22:13:18.812Z,102925.70
2019-03-20T22:16:20.793Z,102923.98
2019-03-20T22:19:17.983Z,102925.28
2019-03-20T22:22:17.665Z,102923.53
2019-03-20T22:25:26.999Z,102920.48
2019-03-20T22:28:26.658Z,102913.84
2019-03-20T22:30:56.887Z,102922.98
2019-03-20T22:34:02.771Z,102924.70
2019-03-20T22:36:37.287Z,102925.59
2019-03-20T22:39:44.995Z,102928.58
2019-03-20T22:42:32.013Z,102925.52
2019-03-20T22:45:30.339Z,102924.27
2019-03-20T22:48:27.536Z,102922.41
2019-03-20T22:51:17.186Z,102930.63
2019-03-20T22:54:22.971Z,102924.21
2019-03-20T22:57:45.999Z,102920.79
2019-03-20T23:00:16.209Z,102935.11
2019-03-20T23:02:59.416Z,102937.27
2019-03-20T23:05:29.628Z,102932.05
2019-03-20T23:07:59.819Z,102937.66
2019-03-20T23:10:33.278Z,102933.30
2019-03-20T23:13:03.481Z,102922.09
2019-03-20T23:15:33.820Z,102922.09
2019-03-20T23:18:04.292Z,102931.55
2019-03-20T23:20:34.480Z,102932.44
2019-03-20T23:23:05.555Z,102934.22
2019-03-20T23:25:35.766Z,102928.58
2019-03-20T23:28:05.950Z,102929.02
2019-03-20T23:30:36.443Z,102927.32
2019-03-20T23:33:06.645Z,102928.27
2019-03-20T23:35:37.104Z,102927.51
2019-03-20T23:38:07.289Z,102934.09
2019-03-20T23:40:38.527Z,102937.70
2019-03-20T23:43:08.800Z,102934.72
2019-03-20T23:45:38.993Z,102937.41
2019-03-20T23:48:19.115Z,102936.60
2019-03-20T23:50:51.222Z,102937.52
2019-03-20T23:53:21.845Z,102941.09
2019-03-20T23:55:52.301Z,102935.50
2019-03-20T23:58:22.586Z,102938.66
